Time;durP1;ratioP1;P1;durP2;ratioP2;P2;SDS_P1;SDS_P2;PMS_P1;PMS_P2;Temp;Humidity;BMP_temperature;BMP_pressure;BME280_temperature;BME280_humidity;BME280_pressure;Samples;Min_cycle;Max_cycle;Signal;HPM_P1;HPM_P2
2023/06/20 00:01:31;;;;;;;12.45;8.77;;;;;;;17.53;71.99;101393.91;5031085;28;20083;-70
2023/06/20 00:03:56;;;;;;;15.88;10.35;;;;;;;17.46;72.70;101388.97;5032154;28;20021;-73
2023/06/20 00:06:22;;;;;;;12.70;9.95;;;;;;;17.39;72.80;101390.38;5014423;28;20111;-71
2023/06/20 00:08:48;;;;;;;15.68;10.68;;;;;;;17.41;73.39;101399.16;5032410;28;20033;-72
2023/06/20 00:11:13;;;;;;;13.23;9.60;;;;;;;17.40;72.91;101400.13;5015081;28;20133;-71
2023/06/20 00:13:42;;;;;;;16.00;9.73;;;;;;;17.38;73.38;101391.34;5015186;28;20604;-71
2023/06/20 00:16:09;;;;;;;14.18;10.02;;;;;;;17.36;73.80;101392.41;5014757;28;20029;-71
2023/06/20 00:18:34;;;;;;;14.80;9.40;;;;;;;17.28;74.17;101384.94;5015347;28;20029;-71
2023/06/20 00:21:00;;;;;;;12.32;9.35;;;;;;;17.34;74.00;101392.53;5033484;28;20029;-71
2023/06/20 00:23:26;;;;;;;14.70;9.50;;;;;;;17.61;72.42;101391.53;5014212;28;20513;-71
2023/06/20 00:25:51;;;;;;;12.05;9.48;;;;;;;17.35;73.06;101386.22;5031325;28;20057;-72
2023/06/20 00:28:17;;;;;;;13.38;9.60;;;;;;;17.25;74.06;101391.34;5032057;28;20025;-71
2023/06/20 00:30:43;;;;;;;14.52;9.98;;;;;;;17.23;73.50;101389.75;5030719;28;20386;-72
2023/06/20 00:33:08;;;;;;;14.02;9.50;;;;;;;17.16;74.51;101390.19;5014409;28;20512;-72
2023/06/20 00:35:33;;;;;;;14.52;9.57;;;;;;;17.13;74.67;101390.38;5015111;28;20025;-71
2023/06/20 00:38:00;;;;;;;13.57;9.30;;;;;;;17.11;73.31;101388.78;5014488;28;20109;-70
2023/06/20 00:40:26;;;;;;;14.63;10.80;;;;;;;17.09;73.50;101386.22;5014141;28;20494;-71
2023/06/20 00:42:51;;;;;;;13.60;10.23;;;;;;;17.13;73.83;101398.41;5032086;28;20063;-71
2023/06/20 00:45:33;;;;;;;13.50;10.25;;;;;;;17.08;73.52;101395.19;5014533;28;20025;-71
2023/06/20 00:48:08;;;;;;;13.27;9.52;;;;;;;17.04;74.65;101405.22;5014365;28;20075;-71
2023/06/20 00:50:34;;;;;;;14.50;10.50;;;;;;;17.01;74.88;101393.88;5014032;28;20544;-70
2023/06/20 00:53:05;;;;;;;14.60;10.20;;;;;;;17.00;75.39;101392.16;5014692;28;20064;-71
2023/06/20 00:55:34;;;;;;;14.40;10.60;;;;;;;16.99;74.78;101393.13;5014492;28;20036;-71
2023/06/20 00:58:01;;;;;;;15.95;10.30;;;;;;;17.06;74.34;101394.44;5014365;28;20079;-70
2023/06/20 01:00:29;;;;;;;13.07;10.35;;;;;;;16.99;74.83;101379.75;4997701;28;20113;-71
2023/06/20 01:02:56;;;;;;;13.55;10.50;;;;;;;16.96;74.54;101388.84;4998099;28;20433;-70
2023/06/20 01:05:28;;;;;;;16.85;10.13;;;;;;;16.96;74.48;101379.94;5014241;28;20026;-71
2023/06/20 01:08:03;;;;;;;12.77;10.30;;;;;;;16.99;74.21;101383.31;5015127;28;20024;-70
2023/06/20 01:10:37;;;;;;;15.38;11.13;;;;;;;16.98;75.25;101381.59;5031454;28;20437;-71
2023/06/20 01:13:25;;;;;;;15.10;10.65;;;;;;;16.91;74.83;101399.81;5014185;28;20028;-70
2023/06/20 01:16:02;;;;;;;15.98;10.52;;;;;;;16.89;74.90;101396.41;5013977;28;20469;-71
2023/06/20 01:18:57;;;;;;;14.63;11.07;;;;;;;16.90;74.90;101386.59;5031843;28;20081;-72
2023/06/20 01:21:30;;;;;;;16.60;10.55;;;;;;;16.82;75.31;101389.75;5029981;28;20021;-71
2023/06/20 01:24:01;;;;;;;14.88;11.32;;;;;;;16.85;75.74;101384.22;5010755;28;20032;-71
2023/06/20 01:27:03;;;;;;;13.48;10.80;;;;;;;16.83;75.85;101401.31;5031415;28;20111;-71
2023/06/20 01:29:57;;;;;;;17.45;10.80;;;;;;;16.77;75.25;101397.22;5005781;28;20026;-70
2023/06/20 01:32:22;;;;;;;17.50;11.45;;;;;;;16.76;75.47;101399.06;5014523;28;20033;-71
2023/06/20 01:34:52;;;;;;;16.75;11.55;;;;;;;16.68;75.96;101398.72;5014404;28;20021;-71
2023/06/20 01:37:19;;;;;;;13.85;10.48;;;;;;;16.72;75.89;101399.38;5017719;28;20056;-72
2023/06/20 01:39:53;;;;;;;15.30;11.27;;;;;;;16.72;75.70;101394.03;5017917;28;20049;-71
2023/06/20 01:42:22;;;;;;;14.63;10.98;;;;;;;16.74;76.07;101405.47;5000905;28;20029;-71
2023/06/20 01:44:49;;;;;;;16.35;11.05;;;;;;;16.79;75.62;101397.97;5017670;28;20036;-72
2023/06/20 01:47:15;;;;;;;16.58;11.35;;;;;;;16.69;75.61;101400.44;5033923;28;20113;-71
2023/06/20 01:49:42;;;;;;;18.58;11.82;;;;;;;16.64;76.40;101389.19;5017148;28;20025;-71
2023/06/20 01:52:10;;;;;;;15.63;11.40;;;;;;;16.59;76.05;101400.19;5017264;28;20040;-71
2023/06/20 01:54:36;;;;;;;18.30;11.65;;;;;;;16.54;76.07;101383.63;5001500;28;20022;-70
2023/06/20 01:57:05;;;;;;;15.98;10.68;;;;;;;16.72;75.76;101394.03;5017277;28;20025;-72
2023/06/20 01:59:33;;;;;;;16.33;10.68;;;;;;;16.60;76.73;101393.00;5016824;28;20466;-70
2023/06/20 02:01:59;;;;;;;16.60;10.88;;;;;;;16.59;76.50;101394.84;5000466;28;20531;-70
2023/06/20 02:04:25;;;;;;;15.60;11.07;;;;;;;16.59;76.92;101389.50;5017426;28;20029;-71
2023/06/20 02:06:51;;;;;;;14.18;10.85;;;;;;;16.55;77.12;101388.00;5001161;28;20489;-70
2023/06/20 02:09:16;;;;;;;15.05;11.20;;;;;;;16.58;77.24;101387.78;5017152;28;20029;-71
2023/06/20 02:11:43;;;;;;;15.18;10.95;;;;;;;16.57;77.65;101380.75;5000491;28;20060;-71
2023/06/20 02:14:09;;;;;;;15.13;11.50;;;;;;;16.57;77.15;101386.09;5017139;28;20467;-71
2023/06/20 02:16:36;;;;;;;13.52;10.75;;;;;;;16.49;76.79;101377.72;5001560;28;20031;-71
2023/06/20 02:19:01;;;;;;;12.93;10.63;;;;;;;16.49;77.06;101380.41;5035790;28;20029;-72
2023/06/20 02:21:30;;;;;;;14.98;11.10;;;;;;;16.50;77.81;101376.75;5018141;28;20488;-70
2023/06/20 02:23:55;;;;;;;18.73;11.45;;;;;;;16.52;77.32;101376.66;5018149;28;20117;-72
2023/06/20 02:26:26;;;;;;;15.02;11.55;;;;;;;16.46;77.91;101372.59;5035758;28;20445;-71
2023/06/20 02:28:55;;;;;;;15.82;10.90;;;;;;;16.45;78.29;101384.22;5007677;28;20033;-70
2023/06/20 02:31:24;;;;;;;15.70;12.13;;;;;;;16.42;77.41;101376.41;5055894;28;20466;-71
2023/06/20 02:33:51;;;;;;;15.88;11.70;;;;;;;16.41;78.00;101374.72;5055573;28;20524;-71
2023/06/20 02:36:19;;;;;;;15.80;12.30;;;;;;;16.40;78.25;101378.34;5037682;28;20017;-70
2023/06/20 02:38:44;;;;;;;19.45;12.00;;;;;;;16.40;78.35;101373.00;5037111;28;20067;-71
2023/06/20 02:41:10;;;;;;;14.82;10.88;;;;;;;16.40;78.69;101373.84;5020450;28;20056;-70
2023/06/20 02:43:35;;;;;;;20.27;11.55;;;;;;;16.40;78.82;101378.34;5037227;28;20056;-71
2023/06/20 02:46:14;;;;;;;18.23;12.05;;;;;;;16.55;78.05;101374.66;5054928;28;20025;-70
2023/06/20 02:48:58;;;;;;;17.90;12.27;;;;;;;16.85;77.99;101372.69;5038232;28;20028;-71
2023/06/20 02:51:27;;;;;;;16.33;12.25;;;;;;;16.57;77.96;101378.06;5037218;28;20025;-71
2023/06/20 02:53:56;;;;;;;17.08;12.13;;;;;;;16.47;78.44;101379.63;5036877;28;20021;-72
2023/06/20 02:56:22;;;;;;;18.20;12.43;;;;;;;16.43;78.37;101368.28;5037219;28;20039;-71
2023/06/20 02:58:52;;;;;;;14.02;10.50;;;;;;;16.49;78.53;101367.03;5020881;28;20021;-71
2023/06/20 03:01:23;;;;;;;18.80;12.93;;;;;;;16.53;77.88;101371.22;5037112;28;20021;-72
2023/06/20 03:03:49;;;;;;;20.50;12.95;;;;;;;16.50;78.54;101367.88;5054462;28;20029;-70
2023/06/20 03:06:15;;;;;;;17.33;11.38;;;;;;;16.55;78.24;101365.75;5054407;28;20075;-70
2023/06/20 03:08:43;;;;;;;16.70;13.23;;;;;;;16.44;78.33;101367.34;5020380;28;20024;-70
2023/06/20 03:11:08;;;;;;;16.52;12.80;;;;;;;16.46;79.09;101360.06;5036726;28;20025;-71
2023/06/20 03:13:34;;;;;;;16.60;12.52;;;;;;;16.43;78.81;101372.78;5036393;28;20032;-71
2023/06/20 03:15:59;;;;;;;14.68;11.93;;;;;;;16.41;78.63;101358.69;5036279;28;20092;-72
2023/06/20 03:18:25;;;;;;;19.85;12.95;;;;;;;16.43;78.30;101354.09;5053524;28;20033;-70
2023/06/20 03:20:50;;;;;;;15.40;10.95;;;;;;;16.41;78.51;101359.53;5054566;28;20025;-71
2023/06/20 03:23:16;;;;;;;17.95;12.82;;;;;;;16.42;78.27;101355.06;5037004;28;20568;-71
2023/06/20 03:25:42;;;;;;;18.60;12.32;;;;;;;16.41;78.35;101359.53;5036321;28;20029;-71
2023/06/20 03:28:07;;;;;;;16.30;12.70;;;;;;;16.43;78.42;101372.78;5036680;28;20437;-70
2023/06/20 03:30:33;;;;;;;17.83;13.05;;;;;;;16.43;78.11;101370.13;5054159;28;20512;-71
2023/06/20 03:32:58;;;;;;;17.17;11.80;;;;;;;16.50;78.47;101363.41;5036562;28;20476;-71
2023/06/20 03:35:23;;;;;;;18.52;12.20;;;;;;;16.41;78.57;101374.72;5036544;28;20546;-70
2023/06/20 03:37:49;;;;;;;16.40;12.07;;;;;;;16.43;78.80;101372.78;5036251;28;20055;-71
2023/06/20 03:40:14;;;;;;;17.55;12.88;;;;;;;16.39;78.97;101376.63;5052901;28;20284;-71
2023/06/20 03:42:41;;;;;;;19.85;13.05;;;;;;;16.44;79.43;101378.00;5052868;28;20025;-70
2023/06/20 03:45:07;;;;;;;19.00;12.93;;;;;;;16.45;79.41;101366.38;5054630;28;20104;-72
2023/06/20 03:47:32;;;;;;;19.63;12.40;;;;;;;16.49;79.34;101382.19;5036315;28;20024;-72
2023/06/20 03:49:58;;;;;;;20.75;14.73;;;;;;;16.52;79.07;101382.84;5019702;28;20020;-71
2023/06/20 03:52:23;;;;;;;16.98;13.55;;;;;;;16.58;78.85;101373.56;5053899;28;20032;-70
2023/06/20 03:54:48;;;;;;;20.58;13.63;;;;;;;16.64;78.98;101374.97;5035592;28;20032;-71
2023/06/20 03:57:14;;;;;;;19.25;13.15;;;;;;;16.61;78.99;101365.34;5052687;28;20024;-70
2023/06/20 03:59:39;;;;;;;18.35;12.82;;;;;;;16.67;78.53;101364.97;5034962;28;20020;-70
2023/06/20 04:02:04;;;;;;;17.35;13.73;;;;;;;16.72;78.66;101370.84;5053964;28;20029;-71
2023/06/20 04:04:30;;;;;;;20.40;13.60;;;;;;;16.76;78.50;101368.81;5052679;28;20429;-71
2023/06/20 04:06:55;;;;;;;21.70;13.15;;;;;;;16.80;78.74;101364.13;5035860;28;20541;-71
2023/06/20 04:09:25;;;;;;;17.92;12.10;;;;;;;16.82;78.60;101372.88;5035734;28;20025;-71
2023/06/20 04:11:50;;;;;;;16.88;12.93;;;;;;;16.85;78.92;101378.03;5052009;28;20115;-70
2023/06/20 04:14:15;;;;;;;16.73;12.60;;;;;;;16.85;78.38;101384.22;5052228;28;20481;-71
2023/06/20 04:16:41;;;;;;;17.70;12.30;;;;;;;16.89;78.56;101379.53;5013025;28;20030;-69
2023/06/20 04:19:06;;;;;;;17.00;13.05;;;;;;;16.91;78.47;101377.59;4996213;28;20378;-70
2023/06/20 04:21:31;;;;;;;18.75;13.55;;;;;;;16.95;78.22;101375.56;5010882;28;20106;-70
2023/06/20 04:23:57;;;;;;;17.58;12.85;;;;;;;17.01;78.01;101386.72;5008792;28;20044;-69
2023/06/20 04:26:23;;;;;;;17.42;12.85;;;;;;;17.02;78.12;101390.25;5002436;28;20056;-70
2023/06/20 04:28:48;;;;;;;16.63;13.13;;;;;;;17.08;78.24;101381.84;5015988;28;20104;-71
2023/06/20 04:31:14;;;;;;;19.08;12.95;;;;;;;17.25;77.16;101385.16;5010869;28;20474;-70
2023/06/20 04:33:43;;;;;;;15.65;12.30;;;;;;;17.25;76.90;101390.50;5032590;28;20033;-70
2023/06/20 04:36:13;;;;;;;18.08;12.98;;;;;;;17.28;77.53;101387.59;5026525;28;20387;-70
2023/06/20 04:38:41;;;;;;;18.73;12.43;;;;;;;17.29;76.59;101379.47;5012384;28;20107;-70
2023/06/20 04:41:07;;;;;;;14.18;11.45;;;;;;;17.37;74.98;101384.28;5015250;28;20068;-69
2023/06/20 04:43:32;;;;;;;16.58;11.85;;;;;;;17.43;74.88;101381.19;5014399;28;20052;-70
2023/06/20 04:45:58;;;;;;;16.40;12.05;;;;;;;17.47;74.45;101377.31;5032099;28;20029;-69
2023/06/20 04:48:28;;;;;;;14.95;11.45;;;;;;;17.55;72.75;101378.59;5032181;28;20032;-69
2023/06/20 04:50:55;;;;;;;15.80;11.35;;;;;;;17.58;72.58;101367.66;5014563;28;20026;-70
2023/06/20 04:53:20;;;;;;;14.30;9.93;;;;;;;17.61;72.72;101370.13;5032391;28;20104;-71
2023/06/20 04:55:46;;;;;;;12.52;9.18;;;;;;;17.70;71.77;101380.16;5014641;28;20733;-70
2023/06/20 04:58:11;;;;;;;12.27;9.52;;;;;;;17.83;72.08;101384.66;5014537;28;20029;-70
2023/06/20 05:00:37;;;;;;;18.02;9.50;;;;;;;17.94;70.18;101392.78;5014677;28;20029;-69
2023/06/20 05:03:03;;;;;;;12.57;9.48;;;;;;;17.97;70.23;101391.66;5032067;28;20022;-70
2023/06/20 05:05:29;;;;;;;12.15;8.15;;;;;;;18.01;70.15;101395.88;5014394;28;20036;-69
2023/06/20 05:07:56;;;;;;;13.43;8.70;;;;;;;18.05;70.27;101386.66;5032226;28;20018;-71
2023/06/20 05:10:25;;;;;;;13.52;8.95;;;;;;;18.12;69.44;101384.38;5034162;28;20036;-70
2023/06/20 05:12:50;;;;;;;13.20;8.88;;;;;;;18.19;68.54;101375.81;5018402;28;20021;-70
2023/06/20 05:15:23;;;;;;;10.77;8.00;;;;;;;18.30;67.54;101384.84;5036885;28;20081;-71
2023/06/20 05:17:48;;;;;;;10.82;8.35;;;;;;;18.38;67.92;101384.28;5019248;28;20033;-70
2023/06/20 05:20:14;;;;;;;10.50;7.65;;;;;;;18.44;67.42;101383.81;5018230;28;20029;-70
2023/06/20 05:22:39;;;;;;;10.25;8.27;;;;;;;18.64;67.31;101385.88;5018075;28;20060;-70
2023/06/20 05:25:05;;;;;;;16.85;9.18;;;;;;;18.70;66.76;101389.88;5002285;28;20041;-71
2023/06/20 05:27:30;;;;;;;11.13;8.23;;;;;;;18.76;66.67;101392.09;5001951;28;20044;-70
2023/06/20 05:29:55;;;;;;;11.90;7.82;;;;;;;18.82;65.80;101393.47;5036194;28;20029;-70
2023/06/20 05:32:21;;;;;;;12.40;8.02;;;;;;;18.82;64.43;101393.47;5035855;28;20036;-71
2023/06/20 05:34:46;;;;;;;10.52;7.97;;;;;;;18.96;65.24;101402.28;5018406;28;20021;-70
2023/06/20 05:37:12;;;;;;;13.77;8.32;;;;;;;18.98;64.85;101398.56;5035949;28;20022;-71
2023/06/20 05:39:37;;;;;;;9.82;7.38;;;;;;;19.25;62.40;101408.09;5017662;28;20132;-70
2023/06/20 05:42:02;;;;;;;14.65;7.70;;;;;;;19.11;63.92;101397.59;5035167;28;20418;-70
2023/06/20 05:44:28;;;;;;;8.20;6.75;;;;;;;19.17;63.68;101397.97;5017888;28;20497;-70
2023/06/20 05:46:54;;;;;;;9.73;6.28;;;;;;;19.23;60.83;101397.47;5035643;28;20467;-70
2023/06/20 05:49:21;;;;;;;7.18;5.70;;;;;;;19.17;62.24;101395.28;5034036;28;20061;-69
2023/06/20 05:51:47;;;;;;;12.13;6.25;;;;;;;19.26;61.61;101404.44;5017787;28;20033;-69
2023/06/20 05:54:13;;;;;;;9.70;5.90;;;;;;;19.29;60.33;101400.66;5001618;28;20029;-69
2023/06/20 05:56:38;;;;;;;10.18;5.68;;;;;;;19.41;59.62;101394.34;5035286;28;20030;-70
2023/06/20 05:59:04;;;;;;;8.48;5.80;;;;;;;19.37;60.08;101392.88;5035275;28;20100;-70
2023/06/20 06:01:29;;;;;;;7.55;5.15;;;;;;;19.38;59.33;101389.22;5017440;28;20116;-70
2023/06/20 06:03:55;;;;;;;10.77;5.43;;;;;;;19.33;59.33;101391.44;5035262;28;20037;-70
2023/06/20 06:06:21;;;;;;;6.80;5.15;;;;;;;19.27;59.75;101375.78;5000564;28;20124;-70
2023/06/20 06:08:46;;;;;;;9.43;5.90;;;;;;;19.50;59.06;101385.56;5016886;28;20036;-70
2023/06/20 06:11:11;;;;;;;7.07;5.47;;;;;;;19.58;59.86;101378.75;5034757;28;20048;-70
2023/06/20 06:13:38;;;;;;;8.82;5.57;;;;;;;19.76;58.24;101384.47;5016950;28;20112;-71
2023/06/20 06:16:04;;;;;;;11.70;6.57;;;;;;;20.16;57.26;101372.34;5034957;28;20033;-70
2023/06/20 06:18:30;;;;;;;12.73;7.05;;;;;;;20.14;57.80;101377.00;5017630;28;20088;-70
2023/06/20 06:20:55;;;;;;;14.75;6.10;;;;;;;20.12;57.00;101369.03;5034001;28;20040;-69
2023/06/20 06:23:21;;;;;;;8.82;6.07;;;;;;;20.14;57.23;101377.00;5000205;28;20502;-70
2023/06/20 06:25:46;;;;;;;7.80;6.28;;;;;;;20.28;57.18;101378.50;5016804;28;20080;-70
2023/06/20 06:28:12;;;;;;;8.60;5.35;;;;;;;20.31;57.08;101376.44;5000341;28;20032;-70
2023/06/20 06:30:37;;;;;;;7.72;5.72;;;;;;;20.88;55.01;101381.59;5016957;28;20049;-71
2023/06/20 06:33:07;;;;;;;9.20;5.95;;;;;;;20.63;55.87;101374.72;5035008;28;20064;-69
2023/06/20 06:35:32;;;;;;;8.35;5.43;;;;;;;20.60;55.39;101383.88;5017718;28;20025;-69
2023/06/20 06:37:58;;;;;;;7.22;5.05;;;;;;;20.58;55.29;101374.25;5017501;28;20052;-70
2023/06/20 06:40:24;;;;;;;6.60;4.75;;;;;;;20.74;53.75;101381.88;5017246;28;20049;-70
2023/06/20 06:42:49;;;;;;;6.72;5.10;;;;;;;20.93;53.00;101382.06;5034900;28;20044;-70
2023/06/20 06:45:15;;;;;;;8.05;5.30;;;;;;;20.92;52.89;101390.25;5016722;28;20171;-70
2023/06/20 06:47:40;;;;;;;7.25;5.05;;;;;;;21.04;52.02;101394.56;5017056;28;20057;-70
2023/06/20 06:50:06;;;;;;;10.40;4.78;;;;;;;21.28;51.53;101396.13;5034726;28;20037;-70
2023/06/20 06:52:34;;;;;;;7.32;4.47;;;;;;;20.96;52.10;101389.88;5017056;28;20022;-70
2023/06/20 06:54:59;;;;;;;7.40;4.78;;;;;;;21.17;50.59;101394.38;5017252;28;20070;-70
2023/06/20 06:57:25;;;;;;;7.75;4.85;;;;;;;21.12;51.20;101391.22;5000964;28;20021;-70
2023/06/20 06:59:50;;;;;;;8.95;4.97;;;;;;;21.17;51.16;101380.03;5034467;28;20048;-70
2023/06/20 07:02:15;;;;;;;9.68;4.53;;;;;;;21.26;51.42;101388.19;5016914;28;20066;-70
2023/06/20 07:04:41;;;;;;;7.38;4.40;;;;;;;21.43;51.40;101396.63;5034176;28;20021;-70
2023/06/20 07:07:06;;;;;;;7.18;5.30;;;;;;;21.43;51.64;101398.47;5000816;28;20116;-72
2023/06/20 07:09:31;;;;;;;6.07;4.75;;;;;;;21.78;50.79;101398.09;5017047;28;20036;-70
2023/06/20 07:12:07;;;;;;;6.55;4.47;;;;;;;21.58;49.18;101390.88;5000314;28;20079;-71
2023/06/20 07:14:33;;;;;;;11.32;5.13;;;;;;;21.43;50.58;101395.78;5016968;28;20025;-72
2023/06/20 07:17:02;;;;;;;7.43;4.53;;;;;;;21.56;50.29;101397.22;5034290;28;20414;-69
2023/06/20 07:19:27;;;;;;;9.68;5.15;;;;;;;21.36;50.53;101385.56;5033264;28;20108;-70
2023/06/20 07:21:56;;;;;;;8.98;4.70;;;;;;;21.50;50.86;101388.88;5016228;28;20113;-70
2023/06/20 07:24:22;;;;;;;10.30;5.03;;;;;;;21.56;50.63;101389.16;5016728;28;20116;-71
2023/06/20 07:26:50;;;;;;;7.80;4.80;;;;;;;21.78;48.93;101381.06;5015819;28;20109;-71
2023/06/20 07:29:15;;;;;;;9.23;4.50;;;;;;;21.76;49.53;101391.97;5033904;28;20029;-71
2023/06/20 07:31:40;;;;;;;8.80;5.32;;;;;;;21.79;50.09;101378.25;5033324;28;20036;-71
2023/06/20 07:34:06;;;;;;;6.78;4.63;;;;;;;21.80;48.84;101385.34;5032414;28;20049;-71
2023/06/20 07:36:31;;;;;;;7.40;4.53;;;;;;;21.84;48.94;101386.75;5033907;28;20025;-72
2023/06/20 07:38:56;;;;;;;6.28;4.40;;;;;;;21.90;49.43;101389.88;5015676;28;20068;-70
2023/06/20 07:41:22;;;;;;;7.82;5.18;;;;;;;21.93;48.75;101376.13;5015414;28;20040;-70
2023/06/20 07:43:47;;;;;;;9.90;4.90;;;;;;;21.94;49.61;101380.53;5015275;28;20048;-70
2023/06/20 07:46:12;;;;;;;6.63;4.20;;;;;;;22.10;48.96;101380.00;5015210;28;20874;-70
2023/06/20 07:48:38;;;;;;;8.05;4.60;;;;;;;22.40;48.36;101381.75;5033306;28;20378;-70
2023/06/20 07:51:03;;;;;;;8.45;5.10;;;;;;;22.70;47.51;101370.97;5016068;28;20159;-72
2023/06/20 07:53:28;;;;;;;13.05;5.20;;;;;;;22.41;48.81;101374.50;5016474;28;20072;-72
2023/06/20 07:55:55;;;;;;;6.15;4.72;;;;;;;22.46;47.77;101363.34;4999352;28;20017;-72
2023/06/20 07:58:21;;;;;;;8.05;5.38;;;;;;;22.74;48.06;101368.84;5016118;28;20021;-71
2023/06/20 08:00:46;;;;;;;7.75;5.32;;;;;;;22.67;48.80;101355.94;5015824;28;20025;-71
2023/06/20 08:03:11;;;;;;;7.22;4.78;;;;;;;23.17;47.38;101353.13;5033618;28;20025;-71
2023/06/20 08:05:37;;;;;;;9.23;4.80;;;;;;;22.98;48.18;101347.63;5015908;28;20029;-72
2023/06/20 08:08:02;;;;;;;7.55;5.00;;;;;;;23.10;47.06;101345.63;5015364;28;20033;-71
2023/06/20 08:10:27;;;;;;;12.57;5.68;;;;;;;23.10;46.75;101350.16;5015044;28;20031;-70
2023/06/20 08:12:53;;;;;;;10.65;5.20;;;;;;;23.12;45.67;101359.81;5032749;28;20017;-70
2023/06/20 08:15:18;;;;;;;13.75;5.35;;;;;;;23.26;45.56;101371.16;5015681;28;20076;-71
2023/06/20 08:17:43;;;;;;;9.90;4.88;;;;;;;23.29;45.23;101366.34;5015318;28;20091;-70
2023/06/20 08:20:09;;;;;;;7.82;4.88;;;;;;;23.49;45.34;101370.81;5033143;28;20032;-70
2023/06/20 08:22:35;;;;;;;8.95;4.72;;;;;;;23.75;43.96;101370.94;4999161;28;20052;-71
2023/06/20 08:25:01;;;;;;;7.30;4.55;;;;;;;23.66;45.20;101364.63;5015371;28;20033;-71
2023/06/20 08:27:26;;;;;;;8.57;4.78;;;;;;;23.67;44.81;101362.75;5015247;28;20100;-70
2023/06/20 08:29:52;;;;;;;6.22;4.97;;;;;;;23.87;44.71;101361.66;4998981;28;20032;-71
2023/06/20 08:32:17;;;;;;;6.25;4.63;;;;;;;24.10;43.61;101353.13;5015175;28;20091;-70
2023/06/20 08:34:42;;;;;;;9.93;5.55;;;;;;;24.07;43.25;101352.56;5033003;28;20037;-71
2023/06/20 08:37:08;;;;;;;12.00;4.97;;;;;;;24.15;43.34;101352.66;5033291;28;20029;-70
2023/06/20 08:39:34;;;;;;;9.35;4.82;;;;;;;23.90;44.30;101360.47;5015128;28;20053;-69
2023/06/20 08:41:59;;;;;;;13.73;6.57;;;;;;;24.09;44.54;101348.72;5015054;28;20525;-70
2023/06/20 08:44:25;;;;;;;9.98;5.65;;;;;;;24.24;44.01;101349.06;5032629;28;20104;-70
2023/06/20 08:46:56;;;;;;;9.00;5.30;;;;;;;24.78;42.28;101339.22;4999093;28;20025;-71
2023/06/20 08:49:22;;;;;;;7.75;5.22;;;;;;;24.69;43.04;101346.38;5032835;28;20470;-70
2023/06/20 08:51:48;;;;;;;6.82;5.32;;;;;;;24.50;42.89;101352.81;5015309;28;20163;-71
2023/06/20 08:54:16;;;;;;;8.52;5.50;;;;;;;24.43;43.42;101344.47;5015233;28;20022;-69
2023/06/20 08:56:43;;;;;;;8.25;5.80;;;;;;;24.44;43.84;101349.72;5033363;28;20017;-69
2023/06/20 08:59:08;;;;;;;10.10;6.00;;;;;;;24.54;43.55;101349.66;5033198;28;20025;-70
2023/06/20 09:01:35;;;;;;;9.95;5.43;;;;;;;24.46;43.92;101345.00;5014519;28;20031;-71
2023/06/20 09:04:03;;;;;;;12.48;6.15;;;;;;;24.46;43.70;101342.28;5032015;28;20100;-69
2023/06/20 09:06:39;;;;;;;9.30;5.97;;;;;;;24.66;43.92;101347.56;5032114;28;20017;-70
2023/06/20 09:09:14;;;;;;;11.32;5.57;;;;;;;24.58;44.66;101333.94;5015036;28;20375;-70
2023/06/20 09:11:40;;;;;;;8.80;5.85;;;;;;;24.49;45.12;101343.00;5014524;28;20075;-70
2023/06/20 09:14:05;;;;;;;8.32;5.65;;;;;;;24.51;43.83;101343.69;5014866;28;20033;-70
2023/06/20 09:16:31;;;;;;;10.77;5.53;;;;;;;24.24;45.30;101340.09;5031813;28;20120;-70
2023/06/20 09:19:00;;;;;;;13.05;5.68;;;;;;;24.13;45.47;101347.41;5014248;28;20036;-70
2023/06/20 09:21:26;;;;;;;10.65;5.38;;;;;;;24.50;44.15;101341.97;5014033;28;20033;-70
2023/06/20 09:24:05;;;;;;;12.57;5.53;;;;;;;24.82;43.61;101337.88;5014388;28;20060;-70
2023/06/20 09:26:31;;;;;;;13.68;5.70;;;;;;;24.83;44.40;101351.22;4995315;28;20026;-69
2023/06/20 09:29:08;;;;;;;15.48;6.40;;;;;;;24.76;43.31;101343.94;5015899;28;20021;-70
2023/06/20 09:32:00;;;;;;;11.18;5.75;;;;;;;24.53;44.80;101347.06;5014649;28;20037;-69
2023/06/20 09:34:33;;;;;;;11.13;4.78;;;;;;;24.64;43.87;101336.03;4991049;28;20436;-70
2023/06/20 09:36:59;;;;;;;8.65;5.68;;;;;;;25.11;43.44;101333.97;4994633;28;20088;-70
2023/06/20 09:39:24;;;;;;;8.93;5.97;;;;;;;24.99;43.09;101336.97;4994119;28;20053;-69
2023/06/20 09:41:51;;;;;;;11.63;5.47;;;;;;;24.86;43.89;101336.56;4994469;28;20084;-70
2023/06/20 09:44:17;;;;;;;6.85;5.35;;;;;;;25.03;43.72;101338.34;4978266;28;20077;-70
2023/06/20 09:46:43;;;;;;;7.45;5.57;;;;;;;25.01;43.02;101334.94;4997839;28;20378;-69
2023/06/20 09:49:11;;;;;;;6.55;5.20;;;;;;;25.28;42.99;101324.94;5031508;28;20078;-70
2023/06/20 09:52:00;;;;;;;7.32;4.68;;;;;;;25.39;43.16;101326.50;5034269;28;20025;-70
2023/06/20 09:54:44;;;;;;;6.63;5.10;;;;;;;25.11;43.97;101323.16;5034496;28;20033;-70
2023/06/20 09:57:12;;;;;;;10.15;6.32;;;;;;;25.30;43.69;101316.66;5035876;28;20021;-70
2023/06/20 09:59:41;;;;;;;12.98;6.53;;;;;;;25.40;44.43;101321.97;5055494;28;20052;-70
2023/06/20 10:02:07;;;;;;;8.55;6.88;;;;;;;25.49;44.41;101321.00;5054274;28;20445;-70
2023/06/20 10:04:39;;;;;;;9.05;6.30;;;;;;;25.69;43.55;101320.72;5038214;28;20104;-70
2023/06/20 10:07:04;;;;;;;;;;;;;;;25.55;44.52;101328.47;5040151;28;20025;-70
2023/06/20 10:09:30;;;;;;;13.77;6.63;;;;;;;25.62;44.51;101320.53;5021069;28;19954;-70
2023/06/20 10:11:55;;;;;;;8.32;6.00;;;;;;;25.75;44.43;101330.91;5037118;28;20060;-70
2023/06/20 10:14:21;;;;;;;10.25;6.45;;;;;;;25.88;43.87;101320.44;5055534;28;20067;-70
2023/06/20 10:16:52;;;;;;;11.18;7.68;;;;;;;25.36;44.63;101332.25;5021019;28;20013;-70
2023/06/20 10:19:18;;;;;;;16.42;6.38;;;;;;;25.43;44.60;101333.31;5037335;28;20043;-70
2023/06/20 10:21:57;;;;;;;11.55;7.05;;;;;;;25.27;45.41;101325.09;5037637;28;20044;-71
2023/06/20 10:24:25;;;;;;;7.93;6.63;;;;;;;25.02;46.29;101323.13;5037176;28;20029;-71
2023/06/20 10:26:53;;;;;;;10.65;6.45;;;;;;;25.19;45.73;101328.59;5037414;28;20032;-70
2023/06/20 10:29:18;;;;;;;8.93;6.65;;;;;;;25.31;45.80;101335.44;5055062;28;20028;-71
2023/06/20 10:32:03;;;;;;;10.73;6.80;;;;;;;25.48;45.83;101332.84;5020967;28;20028;-70
2023/06/20 10:34:36;;;;;;;14.50;7.20;;;;;;;25.53;46.17;101333.22;5053856;28;20056;-71
2023/06/20 10:37:18;;;;;;;10.70;8.02;;;;;;;25.36;45.84;101336.81;5036898;28;20024;-71
2023/06/20 10:39:51;;;;;;;16.00;6.72;;;;;;;25.20;45.73;101326.78;5037478;28;20037;-72
2023/06/20 10:42:37;;;;;;;13.82;7.07;;;;;;;25.31;45.54;101330.03;5036796;28;20103;-70
2023/06/20 10:45:26;;;;;;;8.65;6.68;;;;;;;25.47;44.90;101328.44;5037123;28;20432;-70
2023/06/20 10:47:55;;;;;;;12.45;6.97;;;;;;;25.35;46.00;101330.56;5037333;28;20041;-71
2023/06/20 10:50:21;;;;;;;9.20;6.55;;;;;;;25.35;45.91;101327.84;5055125;28;20044;-71
2023/06/20 10:52:46;;;;;;;8.98;6.95;;;;;;;25.31;46.04;101321.91;5020600;28;20540;-71
2023/06/20 10:55:14;;;;;;;12.75;6.78;;;;;;;25.27;46.24;101322.41;5054392;28;20022;-70
2023/06/20 10:57:44;;;;;;;15.55;7.15;;;;;;;25.35;46.31;101318.88;5054297;28;20027;-70
2023/06/20 11:00:14;;;;;;;9.98;7.00;;;;;;;25.44;45.67;101307.91;5036779;28;20100;-70
2023/06/20 11:02:40;;;;;;;10.98;6.80;;;;;;;25.56;45.84;101303.09;5054573;28;20031;-71
2023/06/20 11:05:06;;;;;;;10.75;7.35;;;;;;;25.50;47.03;101311.88;5036149;28;20108;-71
2023/06/20 11:07:32;;;;;;;10.40;6.80;;;;;;;25.22;46.68;101314.75;5036069;28;20037;-69
2023/06/20 11:09:57;;;;;;;13.45;7.13;;;;;;;25.55;46.24;101301.38;5053845;28;20028;-70
2023/06/20 11:12:22;;;;;;;10.77;6.60;;;;;;;25.45;46.71;101308.78;5052353;28;20527;-70
2023/06/20 11:14:48;;;;;;;10.80;7.45;;;;;;;25.28;46.74;101305.13;5053484;28;21506;-71
2023/06/20 11:17:13;;;;;;;10.80;7.15;;;;;;;25.17;46.56;101295.44;5052264;28;20033;-71
2023/06/20 11:19:39;;;;;;;27.05;8.57;;;;;;;24.92;46.91;101286.34;5034025;28;20033;-71